createdAt,value
2022-09-25T00:02:08.301Z,18.67
2022-09-25T00:04:55.717Z,20.03
2022-09-25T00:07:24.291Z,21.10
2022-09-25T00:09:52.868Z,15.87
2022-09-25T00:12:21.576Z,16.43
2022-09-25T00:14:53.639Z,16.97
2022-09-25T00:17:22.472Z,17.37
2022-09-25T00:19:52.972Z,20.57
2022-09-25T00:22:22.819Z,24.83
2022-09-25T00:24:51.727Z,24.60
2022-09-25T00:27:20.529Z,22.37
2022-09-25T00:29:49.388Z,16.13
2022-09-25T00:32:19.544Z,17.50
2022-09-25T00:34:48.490Z,16.80
2022-09-25T00:37:17.099Z,15.93
2022-09-25T00:39:45.782Z,15.63
2022-09-25T00:42:14.982Z,15.20
2022-09-25T00:44:59.546Z,15.37
2022-09-25T00:47:42.206Z,19.30
2022-09-25T00:50:19.994Z,14.77
2022-09-25T00:53:11.994Z,14.50
2022-09-25T00:55:45.203Z,14.83
2022-09-25T00:58:16.569Z,14.00
2022-09-25T01:00:45.772Z,16.43
2022-09-25T01:03:17.991Z,18.80
2022-09-25T01:05:47.850Z,15.03
2022-09-25T01:08:20.563Z,13.70
2022-09-25T01:10:49.266Z,14.27
2022-09-25T01:13:19.510Z,14.13
2022-09-25T01:15:55.281Z,15.77
2022-09-25T01:18:34.730Z,17.10
2022-09-25T01:21:23.520Z,15.77
2022-09-25T01:24:20.641Z,17.80
2022-09-25T01:27:18.242Z,16.10
2022-09-25T01:29:55.116Z,14.90
2022-09-25T01:32:30.153Z,15.07
2022-09-25T01:35:03.664Z,15.03
2022-09-25T01:37:39.007Z,14.50
2022-09-25T01:40:12.487Z,13.80
2022-09-25T01:42:46.230Z,14.30
2022-09-25T01:45:22.277Z,14.90
2022-09-25T01:47:53.358Z,13.93
2022-09-25T01:50:28.993Z,14.93
2022-09-25T01:53:03.525Z,14.77
2022-09-25T01:55:36.792Z,16.83
2022-09-25T01:58:12.243Z,15.67
2022-09-25T02:00:47.659Z,15.90
2022-09-25T02:03:22.764Z,16.57
2022-09-25T02:05:55.099Z,15.73
2022-09-25T02:08:28.831Z,14.00
2022-09-25T02:11:02.451Z,15.70
2022-09-25T02:13:53.675Z,16.77
2022-09-25T02:16:29.055Z,15.77
2022-09-25T02:19:15.259Z,18.53
2022-09-25T02:21:50.872Z,15.80
2022-09-25T02:24:23.363Z,17.30
2022-09-25T02:26:52.536Z,16.07
2022-09-25T02:29:22.015Z,16.80
2022-09-25T02:31:57.183Z,16.77
2022-09-25T02:34:26.294Z,14.63
2022-09-25T02:36:55.732Z,17.67
2022-09-25T02:39:29.684Z,18.30
2022-09-25T02:42:20.023Z,18.93
2022-09-25T02:45:10.220Z,24.73
2022-09-25T02:47:51.640Z,18.77
2022-09-25T02:50:25.553Z,16.83
2022-09-25T02:53:02.834Z,17.03
2022-09-25T02:55:39.278Z,15.87
2022-09-25T02:58:15.118Z,17.13
2022-09-25T03:00:48.405Z,21.50
2022-09-25T03:03:21.002Z,20.97
2022-09-25T03:05:51.927Z,18.33
2022-09-25T03:08:39.641Z,14.50
2022-09-25T03:11:10.373Z,15.00
2022-09-25T03:13:39.240Z,16.80
2022-09-25T03:16:13.879Z,14.27
2022-09-25T03:18:44.054Z,15.33
2022-09-25T03:21:12.784Z,19.23
2022-09-25T03:23:41.632Z,14.87
2022-09-25T03:26:10.566Z,14.60
2022-09-25T03:28:39.335Z,16.07
2022-09-25T03:31:10.986Z,15.57
2022-09-25T03:33:41.885Z,17.07
2022-09-25T03:36:14.736Z,15.67
2022-09-25T03:38:44.451Z,15.70
2022-09-25T03:41:14.407Z,15.53
2022-09-25T03:43:44.736Z,16.77
2022-09-25T03:46:14.986Z,18.63
2022-09-25T03:48:43.877Z,25.90
2022-09-25T03:51:14.356Z,27.20
2022-09-25T03:53:43.382Z,30.63
2022-09-25T03:56:15.111Z,24.20
2022-09-25T03:58:44.083Z,21.03
2022-09-25T04:01:12.834Z,18.53
2022-09-25T04:03:45.019Z,21.77
2022-09-25T04:06:18.523Z,21.27
2022-09-25T04:08:48.480Z,19.53
2022-09-25T04:11:18.135Z,20.17
2022-09-25T04:13:47.302Z,18.60
2022-09-25T04:16:18.064Z,16.43
2022-09-25T04:18:46.925Z,20.07
2022-09-25T04:21:17.664Z,33.27
2022-09-25T04:24:06.986Z,21.87
2022-09-25T04:26:36.751Z,16.20
2022-09-25T04:29:05.609Z,18.03
2022-09-25T04:31:34.538Z,22.40
2022-09-25T04:34:03.719Z,18.23
2022-09-25T04:36:33.824Z,17.77
2022-09-25T04:39:03.189Z,22.20
2022-09-25T04:41:31.854Z,20.50
2022-09-25T04:44:00.613Z,19.60
2022-09-25T04:46:29.456Z,20.83
2022-09-25T04:48:58.145Z,16.50
2022-09-25T04:51:26.922Z,18.63
2022-09-25T04:53:58.039Z,21.57
2022-09-25T04:56:27.126Z,18.37
2022-09-25T04:58:55.838Z,19.40
2022-09-25T05:01:24.574Z,19.17
2022-09-25T05:03:54.385Z,19.23
2022-09-25T05:06:23.688Z,18.90
2022-09-25T05:08:53.259Z,31.20
2022-09-25T05:11:23.599Z,18.90
2022-09-25T05:13:52.822Z,19.07
2022-09-25T05:16:21.813Z,22.97
2022-09-25T05:18:50.619Z,19.00
2022-09-25T05:21:19.392Z,21.27
2022-09-25T05:23:47.994Z,19.43
2022-09-25T05:26:16.661Z,18.13
2022-09-25T05:28:50.351Z,19.43
2022-09-25T05:31:19.448Z,22.27
2022-09-25T05:33:48.178Z,20.60
2022-09-25T05:36:18.425Z,26.93
2022-09-25T05:38:47.204Z,19.17
2022-09-25T05:41:15.972Z,17.33
2022-09-25T05:43:47.852Z,21.33
2022-09-25T05:46:17.147Z,25.60
2022-09-25T05:48:45.818Z,18.87
2022-09-25T05:51:14.747Z,20.73
2022-09-25T05:53:43.548Z,19.13
2022-09-25T05:56:12.420Z,19.67
2022-09-25T05:58:41.197Z,21.43
2022-09-25T06:01:11.310Z,18.10
2022-09-25T06:03:40.167Z,19.97
2022-09-25T06:06:09.176Z,18.80
2022-09-25T06:08:37.881Z,18.77
2022-09-25T06:11:08.204Z,27.37
2022-09-25T06:13:37.250Z,22.57
2022-09-25T06:16:06.995Z,17.87
2022-09-25T06:18:38.626Z,23.97
2022-09-25T06:21:07.753Z,25.80
2022-09-25T06:23:36.471Z,25.90
2022-09-25T06:26:08.024Z,23.43
2022-09-25T06:28:36.722Z,23.47
2022-09-25T06:31:05.910Z,26.07
2022-09-25T06:33:34.756Z,14.93
2022-09-25T06:36:07.343Z,15.13
2022-09-25T06:38:36.228Z,18.07
2022-09-25T06:41:05.001Z,19.00
2022-09-25T06:43:33.763Z,20.97
2022-09-25T06:46:04.070Z,10.70
2022-09-25T06:48:32.983Z,9.80
2022-09-25T06:51:02.750Z,15.37
2022-09-25T06:53:32.949Z,13.67
2022-09-25T06:56:02.016Z,10.83
2022-09-25T06:58:31.845Z,10.63
2022-09-25T07:01:00.539Z,17.27
2022-09-25T07:03:46.854Z,14.57
2022-09-25T07:06:35.382Z,11.67
2022-09-25T07:09:06.016Z,9.77
2022-09-25T07:11:35.536Z,13.17
2022-09-25T07:14:04.241Z,15.00
2022-09-25T07:16:34.633Z,18.93
2022-09-25T07:19:04.643Z,9.63
2022-09-25T07:21:33.264Z,9.90
2022-09-25T07:24:02.000Z,17.37
2022-09-25T07:26:36.196Z,11.80
2022-09-25T07:29:08.113Z,9.80
2022-09-25T07:31:38.269Z,12.27
2022-09-25T07:34:09.702Z,13.83
2022-09-25T07:36:39.570Z,11.23
2022-09-25T07:39:08.631Z,12.57
2022-09-25T07:41:46.659Z,11.50
2022-09-25T07:44:38.222Z,14.20
2022-09-25T07:47:09.061Z,11.70
2022-09-25T07:49:37.825Z,9.70
2022-09-25T07:52:06.854Z,16.27
2022-09-25T07:54:38.031Z,12.67
2022-09-25T07:57:08.197Z,11.17
2022-09-25T07:59:37.128Z,11.47
2022-09-25T08:02:06.169Z,12.67
2022-09-25T08:04:34.886Z,12.47
2022-09-25T08:07:05.424Z,9.03
2022-09-25T08:09:38.091Z,12.67
2022-09-25T08:12:14.741Z,9.03
2022-09-25T08:14:43.509Z,10.10
2022-09-25T08:17:12.277Z,8.30
2022-09-25T08:19:44.200Z,10.47
2022-09-25T08:22:13.047Z,11.40
2022-09-25T08:24:41.982Z,10.20
2022-09-25T08:27:12.997Z,17.87
2022-09-25T08:29:41.707Z,13.47
2022-09-25T08:32:10.350Z,14.30
2022-09-25T08:34:41.720Z,13.33
2022-09-25T08:37:11.137Z,16.13
2022-09-25T08:39:39.863Z,12.23
2022-09-25T08:42:12.861Z,11.07
2022-09-25T08:45:22.146Z,10.00
2022-09-25T08:48:12.674Z,8.77
2022-09-25T08:50:44.536Z,11.67
2022-09-25T08:53:25.247Z,10.77
2022-09-25T08:56:13.901Z,7.87
2022-09-25T08:58:56.594Z,11.60
2022-09-25T09:01:34.243Z,10.27
2022-09-25T09:04:15.630Z,9.93
2022-09-25T09:06:57.499Z,10.60
2022-09-25T09:10:07.617Z,8.97
2022-09-25T09:12:43.589Z,6.20
2022-09-25T09:15:31.586Z,10.10
2022-09-25T09:18:18.305Z,9.73
2022-09-25T09:20:57.545Z,6.83
2022-09-25T09:23:36.597Z,6.67
2022-09-25T09:26:15.093Z,7.57
2022-09-25T09:29:18.611Z,7.20
2022-09-25T09:31:59.612Z,7.57
2022-09-25T09:35:04.921Z,6.53
2022-09-25T09:37:51.260Z,8.27
2022-09-25T09:40:32.206Z,8.23
2022-09-25T09:43:13.848Z,5.50
2022-09-25T09:45:49.776Z,5.93
2022-09-25T09:48:29.593Z,7.17
2022-09-25T09:51:07.466Z,6.93
2022-09-25T09:53:42.505Z,7.60
2022-09-25T09:56:15.095Z,4.93
2022-09-25T09:58:50.451Z,4.10
2022-09-25T10:01:40.413Z,3.33
2022-09-25T10:04:35.554Z,4.90
2022-09-25T10:07:10.065Z,4.20
2022-09-25T10:09:38.744Z,5.80
2022-09-25T10:12:14.959Z,7.07
2022-09-25T10:14:48.365Z,5.27
2022-09-25T10:17:18.986Z,6.67
2022-09-25T10:19:53.175Z,6.63
2022-09-25T10:22:45.275Z,7.03
2022-09-25T10:25:14.441Z,4.03
2022-09-25T10:27:46.503Z,3.77
2022-09-25T10:30:21.952Z,7.07
2022-09-25T10:32:58.909Z,5.00
2022-09-25T10:35:43.242Z,39.73
2022-09-25T10:38:31.286Z,5.93
2022-09-25T10:41:08.505Z,20.03
2022-09-25T10:43:39.879Z,29.97
2022-09-25T10:46:14.419Z,37.57
2022-09-25T10:49:01.570Z,106.50
2022-09-25T10:51:32.697Z,111.83
2022-09-25T10:54:17.107Z,46.63
2022-09-25T10:56:45.976Z,5.70
2022-09-25T10:59:20.172Z,5.87
2022-09-25T11:01:50.527Z,5.00
2022-09-25T11:04:23.237Z,3.90
2022-09-25T11:06:58.322Z,6.97
2022-09-25T11:09:30.248Z,9.17
2022-09-25T11:12:09.360Z,4.37
2022-09-25T11:14:38.601Z,3.97
2022-09-25T11:17:08.493Z,4.13
2022-09-25T11:19:39.040Z,6.67
2022-09-25T11:22:16.968Z,4.33
2022-09-25T11:25:02.627Z,3.10
2022-09-25T11:27:37.719Z,6.40
2022-09-25T11:30:10.748Z,4.53
2022-09-25T11:32:50.332Z,5.50
2022-09-25T11:35:42.923Z,8.57
2022-09-25T11:38:44.794Z,2.70
2022-09-25T11:41:23.746Z,5.17
2022-09-25T11:44:07.500Z,14.70
2022-09-25T11:46:50.576Z,4.30
2022-09-25T11:49:25.033Z,6.60
2022-09-25T11:52:23.049Z,5.57
2022-09-25T11:55:21.898Z,3.20
2022-09-25T11:58:08.399Z,6.97
2022-09-25T12:00:46.989Z,4.83
2022-09-25T12:03:35.992Z,3.40
2022-09-25T12:06:24.941Z,4.63
2022-09-25T12:09:10.484Z,4.77
2022-09-25T12:11:51.559Z,9.13
2022-09-25T12:14:29.050Z,10.00
2022-09-25T12:17:08.197Z,7.17
2022-09-25T12:19:47.252Z,6.27
2022-09-25T12:22:22.486Z,10.30
2022-09-25T12:25:00.188Z,12.13
2022-09-25T12:27:44.912Z,8.40
2022-09-25T12:30:21.614Z,5.57
2022-09-25T12:33:17.063Z,4.90
2022-09-25T12:35:52.291Z,9.03
2022-09-25T12:38:30.308Z,8.00
2022-09-25T12:41:07.055Z,5.03
2022-09-25T12:43:41.429Z,10.17
2022-09-25T12:46:19.679Z,12.60
2022-09-25T12:48:53.620Z,6.93
2022-09-25T12:51:27.918Z,12.27
2022-09-25T12:54:01.120Z,4.37
2022-09-25T12:56:36.476Z,14.30
2022-09-25T12:59:16.271Z,8.97
2022-09-25T13:01:52.945Z,8.87
2022-09-25T13:04:36.287Z,10.90
2022-09-25T13:07:16.502Z,10.83
2022-09-25T13:09:49.080Z,7.37
2022-09-25T13:12:34.403Z,8.60
2022-09-25T13:15:09.311Z,11.60
2022-09-25T13:17:40.620Z,4.40
2022-09-25T13:20:48.841Z,7.33
2022-09-25T13:23:36.804Z,5.97
2022-09-25T13:26:15.076Z,5.60
2022-09-25T13:28:59.978Z,8.07
2022-09-25T13:31:35.339Z,6.37
2022-09-25T13:34:19.082Z,11.53
2022-09-25T13:36:59.433Z,7.77
2022-09-25T13:39:57.487Z,5.53
2022-09-25T13:42:30.800Z,9.23
2022-09-25T13:45:09.727Z,8.77
2022-09-25T13:47:53.020Z,10.73
2022-09-25T13:50:29.937Z,6.93
2022-09-25T13:53:24.084Z,6.13
2022-09-25T13:56:18.817Z,9.77
